Whitewright, Texas
Current Conditions -  °F | °C
As of 12:35 AM on Saturday 29 Nov 2014 (Local Time) from KGYI Reporting Station
Clear Clear  
Wind Chill: 60°   Ceiling: Unl
Heat Index: 60°   Visibility: 10mi
Dew Point: 49°   Wind: 21mph
Humidity: 67%   Direction: 200°SSW
Pressure: 29.93"   Gusts: 29mph
Location:  33.51°N, 96.39°W
Report Text: KGYI 290635Z AUTO 20018G25KT 10SM CLR 16/10 A2993 RMK AO2 T01560095
Loading
Personal Weather Stations






























Interactive Weather Map New forecast layout! Learn more

10-Day Weather Forecast

Advertisements
Track Severe Weather on mobile